Cordova, AK

9:45 AM AKST on February 12, 2016 (GMT -0900)
Cordova-Smith | | Change Station
CLOSE
Current Station
Airport
Location: Cordova,
Elevation: 43 ft
Nearby Weather Stations

Elev 43 ft 60.49 °N, 145.45 °W | Updated 52 minutes ago

Light Rain
Light Rain
39 °F
Feels Like 35 °F
N
6
Wind Variable Wind from East
Gusts 17 mph

Today
High -- | Low -- °F
--% Chance of Precip.
Yesterday
High -- | Low -- °F
Precip. -- in
Pressure 29.38 in
Visibility 9.0 miles
Clouds Overcast 3600 ft
Windchill 35 °F
Dew Point 36 °F
Humidity 89%
Rainfall 0.08 in
Snow Depth Not available.
8:31 AM 5:23 PM
Waxing Crescent, 22% visible
METAR PACV 121753Z 09005G15KT 9SM -RA OVC036 04/02 A2938 RMK AO2 SLP949 P0002 60007 T00390022 10044 20028 55013
Pressure 29.38 in
Visibility 9.0 miles
Clouds Overcast 3600 ft
Windchill 35 °F
Dew Point 36 °F
Humidity 89%
Rainfall 0.08 in
Snow Depth Not available.
8:31 AM 5:23 PM
Waxing Crescent, 22% visible
METAR PACV 121753Z 09005G15KT 9SM -RA OVC036 04/02 A2938 RMK AO2 SLP949 P0002 60007 T00390022 10044 20028 55013

10-Day Weather Forecast

Almanac

Astronomy

Feb. 12, 2016 Rise Set
Actual Time
Civil Twilight
Nautical Twilight
Astronomical Twilight
Moon
Length of Visible Light
Length of Day
Tomorrow will be .
, % of the Moon is Illuminated

Today's Extremes

State Highs State Lows

Community

WunderPhotos

Upload Photos

1,892,369 photos uploaded!

WunderBlog® & News

Nearby

Air Quality

  Air Quality AQ Index Pollutant
Not available.

Snow Depth

Station Depth Elevation

Earthquake Activity

City Distance Mag. Time & Date
Minimum magnitude displayed is 2.5.

Coastal Water Temperatures

Place Temperature

Stations

Nearby Weather Stations

Station Location Temp. Windchill Dew Point Humidity Wind Precip. Elev Updated Type
                   

Watches & Warnings

There are currently no watches in effect.